Time;durP1;ratioP1;P1;durP2;ratioP2;P2;SDS_P1;SDS_P2;PMS_P1;PMS_P2;Temp;Humidity;BMP_temperature;BMP_pressure;BME280_temperature;BME280_humidity;BME280_pressure;Samples;Min_cycle;Max_cycle;Signal;HPM_P1;HPM_P2
2023/08/01 00:00:36;;;;;;;0.73;0.38;;;;;;;17.87;100.00;98155.38;7391940;19;20033;-78
2023/08/01 00:03:02;;;;;;;1.48;0.20;;;;;;;18.39;100.00;98158.59;7391616;19;20018;-78
2023/08/01 00:05:28;;;;;;;0.10;0.00;;;;;;;18.14;100.00;98150.81;7390191;19;20022;-78
2023/08/01 00:07:54;;;;;;;6.90;0.55;;;;;;;18.51;100.00;98154.06;7392451;19;20399;-78
2023/08/01 00:10:20;;;;;;;0.10;0.10;;;;;;;18.24;100.00;98159.41;7391728;19;20014;-78
2023/08/01 00:12:46;;;;;;;0.63;0.40;;;;;;;18.01;100.00;98158.75;7391037;19;20453;-78
2023/08/01 00:15:12;;;;;;;0.25;0.25;;;;;;;17.80;100.00;98161.78;7390418;19;20007;-78
2023/08/01 00:17:38;;;;;;;0.30;0.30;;;;;;;17.81;100.00;98154.09;7391495;19;20351;-78
2023/08/01 00:20:05;;;;;;;0.10;0.00;;;;;;;17.56;100.00;98148.31;7391886;19;20070;-78
2023/08/01 00:22:31;;;;;;;0.15;0.10;;;;;;;17.56;100.00;98153.94;7389718;19;20014;-78
2023/08/01 00:24:58;;;;;;;0.10;0.10;;;;;;;17.53;100.00;98157.88;7391214;19;20480;-78
2023/08/01 00:27:24;;;;;;;0.57;0.50;;;;;;;17.60;100.00;98154.31;7392048;19;20015;-78
2023/08/01 00:29:50;;;;;;;0.10;0.08;;;;;;;17.75;100.00;98147.91;7392133;19;20007;-78
2023/08/01 00:32:16;;;;;;;0.10;0.10;;;;;;;17.74;100.00;98152.03;7392497;19;20014;-78
2023/08/01 00:34:43;;;;;;;0.20;0.20;;;;;;;17.82;100.00;98161.97;7389677;19;20007;-78
2023/08/01 00:37:09;;;;;;;0.77;0.45;;;;;;;17.79;100.00;98151.84;7392785;19;20108;-78
2023/08/01 00:39:35;;;;;;;0.30;0.30;;;;;;;17.73;100.00;98162.56;7391766;19;20020;-78
2023/08/01 00:42:02;;;;;;;11.10;0.55;;;;;;;17.60;100.00;98154.31;7389901;19;20019;-78
2023/08/01 00:44:28;;;;;;;3.53;0.68;;;;;;;17.59;100.00;98152.81;7389994;19;20021;-77
2023/08/01 00:46:54;;;;;;;1.17;0.50;;;;;;;17.57;100.00;98152.63;7391054;19;20461;-78
2023/08/01 00:49:21;;;;;;;1.77;0.47;;;;;;;17.47;100.00;98154.50;7391275;19;20078;-78
2023/08/01 00:51:47;;;;;;;0.10;0.10;;;;;;;17.48;100.00;98152.44;7389501;19;20006;-78
2023/08/01 00:54:14;;;;;;;0.60;0.45;;;;;;;17.42;100.00;98155.41;7395073;19;20082;-77
2023/08/01 00:56:40;;;;;;;3.00;0.73;;;;;;;17.38;100.00;98160.69;7391365;19;20019;-78
2023/08/01 00:59:06;;;;;;;0.20;0.13;;;;;;;17.37;100.00;98159.16;7391969;19;20010;-78
2023/08/01 01:01:32;;;;;;;0.20;0.10;;;;;;;17.41;100.00;98154.66;7388869;19;20074;-77
2023/08/01 01:03:59;;;;;;;0.10;0.10;;;;;;;17.41;100.00;98159.56;7395654;19;20015;-78
2023/08/01 01:06:31;;;;;;;0.75;0.10;;;;;;;17.40;100.00;98160.88;7391105;19;20019;-78
2023/08/01 01:08:58;;;;;;;0.98;0.28;;;;;;;17.55;100.00;98158.06;7391077;19;20014;-78
2023/08/01 01:11:24;;;;;;;0.47;0.32;;;;;;;17.53;100.00;98166.31;7388270;19;20019;-78
2023/08/01 01:13:52;;;;;;;1.30;0.10;;;;;;;17.35;100.00;98173.06;7388891;19;20022;-78
2023/08/01 01:16:19;;;;;;;3.95;0.52;;;;;;;17.30;100.00;98169.09;7388301;19;20373;-78
2023/08/01 01:18:46;;;;;;;3.80;0.63;;;;;;;17.43;100.00;98168.19;7396271;19;20022;-78
2023/08/01 01:21:12;;;;;;;1.73;0.20;;;;;;;17.45;100.00;98171.91;7395628;19;20494;-77
2023/08/01 01:23:39;;;;;;;0.40;0.30;;;;;;;17.47;100.00;98167.81;7396717;19;20022;-77
2023/08/01 01:26:06;;;;;;;0.75;0.10;;;;;;;17.42;100.00;98161.06;7397473;19;20026;-77
2023/08/01 01:28:34;;;;;;;0.40;0.20;;;;;;;17.63;100.00;98172.16;7399010;19;20010;-77
2023/08/01 01:31:01;;;;;;;0.77;0.38;;;;;;;17.51;100.00;98168.19;7396208;19;20022;-78
2023/08/01 01:33:28;;;;;;;1.73;0.63;;;;;;;17.38;100.00;98172.69;7397965;19;20054;-77
2023/08/01 01:35:54;;;;;;;0.20;0.20;;;;;;;17.29;100.00;98175.31;7396778;19;20014;-77
2023/08/01 01:38:20;;;;;;;0.82;0.40;;;;;;;17.33;100.00;98175.69;7396755;19;20346;-77
2023/08/01 01:40:46;;;;;;;4.63;0.25;;;;;;;17.48;100.00;98177.75;7396121;19;20148;-78
2023/08/01 01:43:13;;;;;;;1.73;0.28;;;;;;;17.65;100.00;98173.06;7396588;19;20115;-77
2023/08/01 01:45:39;;;;;;;0.80;0.40;;;;;;;17.09;100.00;98181.84;7397350;19;20372;-77
2023/08/01 01:48:05;;;;;;;0.30;0.30;;;;;;;17.22;100.00;98176.81;7395757;19;20020;-77
2023/08/01 01:50:31;;;;;;;0.80;0.45;;;;;;;17.10;100.00;98177.72;7395991;19;20018;-77
2023/08/01 01:52:57;;;;;;;0.25;0.15;;;;;;;16.86;100.00;98172.63;7396829;19;20052;-77
2023/08/01 01:55:23;;;;;;;0.10;0.00;;;;;;;16.99;100.00;98178.09;7393861;19;20456;-77
2023/08/01 01:57:49;;;;;;;1.58;0.35;;;;;;;17.26;100.00;98184.88;7394788;19;20018;-78
2023/08/01 02:00:15;;;;;;;1.10;0.30;;;;;;;17.12;100.00;98172.28;7395935;19;20018;-78
2023/08/01 02:02:41;;;;;;;0.63;0.20;;;;;;;16.99;100.00;98178.09;7395360;19;20058;-77
2023/08/01 02:05:08;;;;;;;0.30;0.20;;;;;;;16.89;100.00;98175.06;7390612;19;20031;-78
2023/08/01 02:07:34;;;;;;;0.63;0.15;;;;;;;16.77;100.00;98184.41;7400675;19;20532;-78
2023/08/01 02:10:01;;;;;;;0.73;0.52;;;;;;;16.83;100.00;98170.97;7394313;19;20010;-80
2023/08/01 02:12:31;;;;;;;0.03;0.03;;;;;;;16.73;100.00;98176.34;7394916;19;20429;-78
2023/08/01 02:14:58;;;;;;;0.85;0.30;;;;;;;16.77;100.00;98164.72;7394265;19;20027;-78
2023/08/01 02:17:24;;;;;;;0.60;0.20;;;;;;;16.90;100.00;98168.13;7392367;19;20090;-78
2023/08/01 02:19:50;;;;;;;0.30;0.30;;;;;;;16.82;100.00;98155.38;7392868;19;20010;-78
2023/08/01 02:22:17;;;;;;;0.80;0.30;;;;;;;16.77;100.00;98164.72;7395065;19;20026;-78
2023/08/01 02:24:43;;;;;;;0.40;0.13;;;;;;;16.81;100.00;98157.44;7393998;19;20477;-78
2023/08/01 02:27:09;;;;;;;2.88;0.50;;;;;;;16.84;100.00;98159.13;7395733;19;20146;-78
2023/08/01 02:29:35;;;;;;;0.30;0.10;;;;;;;16.84;100.00;98169.63;7390304;19;20010;-78
2023/08/01 02:32:01;;;;;;;0.20;0.10;;;;;;;16.73;100.00;98164.34;7395907;19;20026;-78
2023/08/01 02:34:28;;;;;;;0.17;0.10;;;;;;;16.77;100.00;98165.50;7393752;19;20018;-78
2023/08/01 02:36:54;;;;;;;0.75;0.35;;;;;;;16.83;100.00;98157.63;7398070;19;20023;-78
2023/08/01 02:39:20;;;;;;;1.25;0.20;;;;;;;17.01;100.00;98167.03;7393337;19;20476;-78
2023/08/01 02:41:46;;;;;;;0.25;0.20;;;;;;;16.96;100.00;98165.91;7395797;19;20018;-78
2023/08/01 02:44:12;;;;;;;0.75;0.55;;;;;;;16.87;100.00;98165.72;7394801;19;20022;-77
2023/08/01 02:46:39;;;;;;;0.43;0.20;;;;;;;16.93;100.00;98149.41;7398507;19;20365;-78
2023/08/01 02:49:05;;;;;;;0.65;0.20;;;;;;;16.95;100.00;98150.34;7393278;19;20049;-78
2023/08/01 02:51:31;;;;;;;0.10;0.10;;;;;;;17.12;100.00;98149.78;7395489;19;20015;-78
2023/08/01 02:53:57;;;;;;;2.28;0.65;;;;;;;17.07;100.00;98156.34;7393269;19;20451;-78
2023/08/01 02:56:23;;;;;;;0.82;0.32;;;;;;;17.12;100.00;98149.78;7392354;19;20019;-78
2023/08/01 02:58:51;;;;;;;0.68;0.30;;;;;;;17.09;100.00;98151.66;7393744;19;20449;-78
2023/08/01 03:01:17;;;;;;;0.65;0.20;;;;;;;16.93;100.00;98157.84;7393492;19;20086;-78
2023/08/01 03:03:43;;;;;;;0.10;0.10;;;;;;;16.99;100.00;98164.03;7393669;19;20607;-78
2023/08/01 03:06:10;;;;;;;0.20;0.00;;;;;;;17.00;100.00;98154.28;7396333;19;20355;-78
2023/08/01 03:08:36;;;;;;;0.80;0.28;;;;;;;17.07;100.00;98153.53;7393033;19;20022;-78
2023/08/01 03:11:02;;;;;;;0.55;0.32;;;;;;;17.16;100.00;98156.56;7395961;19;20468;-78
2023/08/01 03:13:28;;;;;;;0.43;0.43;;;;;;;17.25;100.00;98155.25;7394454;19;20086;-78
2023/08/01 03:15:54;;;;;;;1.83;0.28;;;;;;;17.26;100.00;98153.94;7394231;19;20011;-78
2023/08/01 03:18:20;;;;;;;0.75;0.32;;;;;;;17.23;100.00;98155.06;7393834;19;20019;-78
2023/08/01 03:20:47;;;;;;;4.90;1.00;;;;;;;17.18;100.00;98159.56;7392612;19;20025;-78
2023/08/01 03:23:13;;;;;;;0.85;0.30;;;;;;;17.14;100.00;98159.19;7395409;19;20011;-78
2023/08/01 03:25:39;;;;;;;0.38;0.38;;;;;;;17.15;100.00;98160.66;7392006;19;20022;-78
2023/08/01 03:28:05;;;;;;;0.28;0.10;;;;;;;17.12;100.00;98156.19;7392789;19;20754;-78
2023/08/01 03:30:34;;;;;;;0.32;0.25;;;;;;;17.16;100.00;98161.41;7394142;19;20026;-78
2023/08/01 03:33:02;;;;;;;0.85;0.47;;;;;;;17.05;100.00;98156.91;7392065;19;20010;-78
2023/08/01 03:35:28;;;;;;;2.20;0.57;;;;;;;16.96;100.00;98154.66;7393908;19;20010;-78
2023/08/01 03:37:54;;;;;;;1.75;0.52;;;;;;;16.97;100.00;98155.41;7393262;19;20029;-78
2023/08/01 03:40:21;;;;;;;0.75;0.30;;;;;;;16.94;100.00;98156.50;7389913;19;20007;-77
2023/08/01 03:42:47;;;;;;;3.13;0.43;;;;;;;16.97;100.00;98155.41;7392743;19;20021;-78
2023/08/01 03:45:13;;;;;;;1.30;0.43;;;;;;;17.03;100.00;98155.97;7393967;19;20026;-78
2023/08/01 03:47:39;;;;;;;0.45;0.35;;;;;;;16.94;100.00;98150.88;7391690;19;20450;-77
2023/08/01 03:50:05;;;;;;;0.30;0.30;;;;;;;16.95;100.00;98152.41;7393624;19;20018;-78
2023/08/01 03:52:32;;;;;;;1.02;0.22;;;;;;;16.89;100.00;98149.75;7393336;19;20019;-77
2023/08/01 03:54:58;;;;;;;0.20;0.20;;;;;;;16.97;100.00;98144.16;7392957;19;20031;-78
2023/08/01 03:57:24;;;;;;;0.10;0.10;;;;;;;17.07;100.00;98142.28;7394047;19;20082;-78
2023/08/01 03:59:50;;;;;;;0.47;0.25;;;;;;;17.04;100.00;98140.59;7390411;19;20035;-78
2023/08/01 04:02:16;;;;;;;4.28;0.20;;;;;;;17.08;100.00;98136.13;7392287;19;20014;-78
2023/08/01 04:04:43;;;;;;;2.13;0.73;;;;;;;17.04;100.00;98135.75;7391537;19;20011;-78
2023/08/01 04:07:09;;;;;;;0.57;0.22;;;;;;;17.01;100.00;98139.66;7396104;19;20038;-78
2023/08/01 04:09:38;;;;;;;0.68;0.30;;;;;;;17.09;100.00;98134.03;7390826;19;20082;-78
2023/08/01 04:12:06;;;;;;;0.10;0.10;;;;;;;17.07;100.00;98131.03;7392760;19;20409;-77
2023/08/01 04:14:33;;;;;;;0.32;0.32;;;;;;;17.09;100.00;98140.41;7394104;19;20002;-78
2023/08/01 04:16:59;;;;;;;8.98;0.70;;;;;;;17.06;100.00;98141.56;7392753;19;20010;-78
2023/08/01 04:19:25;;;;;;;0.32;0.20;;;;;;;17.03;100.00;98144.72;7390355;19;20026;-78
2023/08/01 04:21:51;;;;;;;2.00;0.50;;;;;;;16.99;100.00;98138.72;7390831;19;20019;-78
2023/08/01 04:24:18;;;;;;;0.28;0.15;;;;;;;17.11;100.00;98139.84;7391856;19;20074;-78
2023/08/01 04:26:44;;;;;;;0.57;0.20;;;;;;;17.11;100.00;98149.03;7392588;19;20018;-78
2023/08/01 04:29:10;;;;;;;6.13;0.55;;;;;;;17.21;100.00;98157.69;7389112;19;20022;-78
2023/08/01 04:31:36;;;;;;;1.75;0.20;;;;;;;17.12;100.00;98142.13;7392001;19;20010;-78
2023/08/01 04:34:02;;;;;;;1.63;0.45;;;;;;;17.09;100.00;98145.28;7391319;19;20025;-78
2023/08/01 04:36:28;;;;;;;0.75;0.35;;;;;;;17.06;100.00;98157.66;7390882;19;20022;-78
2023/08/01 04:38:54;;;;;;;0.50;0.32;;;;;;;17.09;100.00;98150.91;7390099;19;20021;-78
2023/08/01 04:41:20;;;;;;;2.03;0.32;;;;;;;17.03;100.00;98156.72;7391645;19;20006;-78
2023/08/01 04:43:46;;;;;;;6.07;0.45;;;;;;;17.10;100.00;98158.81;7390893;19;20592;-78
2023/08/01 04:46:12;;;;;;;20.27;0.65;;;;;;;17.07;100.00;98176.78;7393799;19;20022;-78
2023/08/01 04:48:38;;;;;;;1.58;0.82;;;;;;;16.97;100.00;98172.28;7390308;19;20028;-78
2023/08/01 04:51:04;;;;;;;3.10;0.50;;;;;;;17.17;100.00;98174.19;7388445;19;20006;-78
2023/08/01 04:53:30;;;;;;;1.05;0.57;;;;;;;17.09;100.00;98179.78;7390160;19;20022;-78
2023/08/01 04:55:57;;;;;;;0.28;0.13;;;;;;;17.00;100.00;98179.59;7391309;19;20018;-78
2023/08/01 04:58:23;;;;;;;0.10;0.10;;;;;;;17.01;100.00;98189.53;7390172;19;20046;-78
2023/08/01 05:00:49;;;;;;;0.70;0.55;;;;;;;16.89;100.00;98188.38;7391763;19;20018;-78
2023/08/01 05:03:15;;;;;;;7.75;0.20;;;;;;;16.80;100.00;98183.31;7389575;19;20015;-78
2023/08/01 05:05:41;;;;;;;0.52;0.20;;;;;;;16.71;100.00;98184.59;7393609;19;20021;-78
2023/08/01 05:08:07;;;;;;;5.82;1.17;;;;;;;16.65;100.00;98186.84;7390072;19;20022;-78
2023/08/01 05:10:33;;;;;;;2.95;0.45;;;;;;;16.72;100.00;98188.91;7391192;19;20018;-78
2023/08/01 05:12:59;;;;;;;0.77;0.20;;;;;;;17.24;100.00;98193.88;7391251;19;20109;-78
2023/08/01 05:15:25;;;;;;;0.10;0.10;;;;;;;17.42;100.00;98189.94;7391766;19;20019;-78
2023/08/01 05:17:52;;;;;;;0.30;0.30;;;;;;;17.60;100.00;98190.16;7388992;19;20030;-78
2023/08/01 05:20:18;;;;;;;1.33;0.32;;;;;;;17.45;100.00;98199.34;7390779;19;20504;-78
2023/08/01 05:22:44;;;;;;;0.38;0.28;;;;;;;17.33;100.00;98203.81;7389671;19;20026;-78
2023/08/01 05:25:10;;;;;;;0.20;0.20;;;;;;;17.60;100.00;98204.22;7391065;19;20017;-78
2023/08/01 05:27:36;;;;;;;0.13;0.13;;;;;;;17.06;100.00;98203.44;7388742;19;20469;-78
2023/08/01 05:30:03;;;;;;;3.72;0.43;;;;;;;17.25;100.00;98203.06;7391078;19;20484;-78
2023/08/01 05:32:29;;;;;;;0.80;0.25;;;;;;;17.00;100.00;98205.66;7389529;19;20026;-78
2023/08/01 05:34:55;;;;;;;6.32;0.20;;;;;;;17.20;100.00;98206.81;7391356;19;20007;-78
2023/08/01 05:37:21;;;;;;;0.20;0.20;;;;;;;17.09;100.00;98201.53;7395240;19;20011;-78
2023/08/01 05:39:47;;;;;;;0.10;0.10;;;;;;;17.27;100.00;98206.06;7388405;19;20022;-78
2023/08/01 05:42:13;;;;;;;0.38;0.22;;;;;;;17.15;100.00;98213.38;7390297;19;20025;-78
2023/08/01 05:44:39;;;;;;;1.10;0.45;;;;;;;17.13;100.00;98210.38;7391602;19;20089;-78
2023/08/01 05:47:06;;;;;;;0.20;0.20;;;;;;;17.19;100.00;98222.19;7390456;19;20476;-78
2023/08/01 05:49:32;;;;;;;0.17;0.15;;;;;;;17.27;100.00;98228.56;7387404;19;20011;-78
2023/08/01 05:51:58;;;;;;;9.52;1.75;;;;;;;17.32;100.00;98227.66;7391038;19;20057;-78
2023/08/01 05:54:24;;;;;;;0.52;0.30;;;;;;;17.30;100.00;98227.47;7389050;19;20018;-78
2023/08/01 05:56:50;;;;;;;0.20;0.20;;;;;;;17.37;100.00;98227.47;7387453;19;20363;-78
2023/08/01 05:59:16;;;;;;;0.32;0.15;;;;;;;17.40;100.00;98236.84;7388730;19;20019;-78
2023/08/01 06:01:43;;;;;;;0.20;0.15;;;;;;;17.40;100.00;98231.97;7389745;19;20011;-78
2023/08/01 06:04:09;;;;;;;0.10;0.10;;;;;;;17.41;100.00;98235.56;7393568;19;20085;-79
2023/08/01 06:06:35;;;;;;;4.50;0.20;;;;;;;18.55;100.00;98233.34;7400078;19;20044;-79
2023/08/01 06:09:02;;;;;;;0.57;0.20;;;;;;;17.87;100.00;98233.47;7392275;19;20018;-79
2023/08/01 06:11:28;;;;;;;0.65;0.20;;;;;;;17.66;100.00;98230.88;7395394;19;20022;-79
2023/08/01 06:13:54;;;;;;;0.73;0.20;;;;;;;17.62;100.00;98235.38;7394485;19;20011;-78
2023/08/01 06:16:20;;;;;;;0.38;0.13;;;;;;;17.52;100.00;98249.25;7394334;19;20018;-79
2023/08/01 06:18:46;;;;;;;1.05;0.57;;;;;;;17.50;100.00;98231.44;7392929;19;20011;-79
2023/08/01 06:21:12;;;;;;;0.80;0.47;;;;;;;17.53;100.00;98233.88;7396716;19;20025;-79
2023/08/01 06:23:39;;;;;;;0.25;0.10;;;;;;;17.50;100.00;98240.63;7394031;19;20086;-79
2023/08/01 06:26:05;;;;;;;0.22;0.03;;;;;;;17.52;100.00;98243.63;7395201;19;20015;-79
2023/08/01 06:28:31;;;;;;;5.78;0.30;;;;;;;17.55;100.00;98233.31;7395468;19;20244;-79
2023/08/01 06:30:57;;;;;;;1.58;0.63;;;;;;;17.48;100.00;98236.88;7395067;19;20078;-79
2023/08/01 06:33:23;;;;;;;10.32;0.20;;;;;;;17.38;100.00;98245.09;7394121;19;20090;-79
2023/08/01 06:35:49;;;;;;;0.10;0.10;;;;;;;17.47;100.00;98247.38;7395393;19;20039;-79
2023/08/01 06:38:15;;;;;;;1.27;0.25;;;;;;;17.71;100.00;98244.03;7394292;19;20025;-78
2023/08/01 06:40:41;;;;;;;1.45;0.40;;;;;;;17.77;100.00;98247.41;7395625;19;20011;-79
2023/08/01 06:43:07;;;;;;;0.10;0.10;;;;;;;17.88;100.00;98247.03;7394279;19;20049;-79
2023/08/01 06:45:33;;;;;;;0.82;0.30;;;;;;;17.87;100.00;98251.13;7397568;19;20025;-79
2023/08/01 06:48:00;;;;;;;0.80;0.20;;;;;;;17.86;100.00;98244.03;7393754;19;20476;-79
2023/08/01 06:50:26;;;;;;;0.70;0.30;;;;;;;17.93;100.00;98254.50;7392773;19;20030;-79
2023/08/01 06:52:52;;;;;;;0.70;0.20;;;;;;;18.08;100.00;98248.84;7396987;19;20094;-78
2023/08/01 06:55:18;;;;;;;1.40;0.15;;;;;;;18.23;100.00;98259.38;7393778;19;20015;-79
2023/08/01 06:57:44;;;;;;;0.20;0.20;;;;;;;18.14;100.00;98257.13;7394104;19;20345;-79
2023/08/01 07:00:11;;;;;;;2.63;0.75;;;;;;;18.08;100.00;98251.66;7394937;19;20026;-79
2023/08/01 07:02:37;;;;;;;0.30;0.20;;;;;;;18.37;100.00;98251.41;7394688;19;20022;-78
2023/08/01 07:05:04;;;;;;;0.30;0.30;;;;;;;18.29;100.00;98253.53;7396335;19;20078;-78
2023/08/01 07:07:30;;;;;;;3.30;0.20;;;;;;;18.31;100.00;98264.97;7397481;19;20026;-79
2023/08/01 07:09:56;;;;;;;0.60;0.22;;;;;;;18.73;100.00;98271.66;7393868;19;20335;-79
2023/08/01 07:12:23;;;;;;;1.13;0.45;;;;;;;18.41;100.00;98268.72;7392165;19;20007;-79
2023/08/01 07:14:49;;;;;;;0.68;0.30;;;;;;;18.61;100.00;98271.31;7391655;19;20402;-79
2023/08/01 07:17:15;;;;;;;0.10;0.10;;;;;;;18.50;100.00;98265.31;7394209;19;20473;-79
2023/08/01 07:19:41;;;;;;;0.00;0.00;;;;;;;18.39;100.00;98276.97;7391931;19;20010;-79
2023/08/01 07:22:07;;;;;;;4.85;0.30;;;;;;;18.40;100.00;98275.66;7392975;19;20011;-78
2023/08/01 07:24:33;;;;;;;0.75;0.20;;;;;;;18.45;100.00;98274.75;7393406;19;20472;-78
2023/08/01 07:27:00;;;;;;;0.20;0.10;;;;;;;18.27;100.00;98284.34;7395464;19;20029;-79
2023/08/01 07:29:26;;;;;;;0.22;0.22;;;;;;;18.83;100.00;98284.59;7391316;19;20018;-78
2023/08/01 07:31:52;;;;;;;5.05;0.30;;;;;;;18.42;100.00;98289.94;7391200;19;20039;-78
2023/08/01 07:34:18;;;;;;;4.78;0.52;;;;;;;18.42;100.00;98281.47;7393489;19;20017;-79
2023/08/01 07:36:48;;;;;;;0.13;0.10;;;;;;;18.46;100.00;98293.91;7394210;19;20018;-78
2023/08/01 07:39:18;;;;;;;3.17;0.32;;;;;;;18.40;100.00;98289.75;7391418;19;20035;-78
2023/08/01 07:41:44;;;;;;;1.50;0.30;;;;;;;18.56;100.00;98294.09;7393059;19;20039;-79
2023/08/01 07:44:10;;;;;;;0.10;0.10;;;;;;;18.53;100.00;98292.38;7395847;19;20355;-79
2023/08/01 07:46:36;;;;;;;0.90;0.32;;;;;;;18.46;100.00;98295.97;7395631;19;20031;-78
2023/08/01 07:49:02;;;;;;;0.20;0.20;;;;;;;18.97;100.00;98306.91;7392826;19;20379;-79
2023/08/01 07:51:29;;;;;;;0.75;0.50;;;;;;;18.57;100.00;98306.84;7397059;19;20019;-79
2023/08/01 07:53:56;;;;;;;0.25;0.20;;;;;;;18.56;100.00;98302.53;7392014;19;20018;-79
2023/08/01 07:56:23;;;;;;;4.32;0.15;;;;;;;18.55;100.00;98301.03;7391783;19;20018;-79
2023/08/01 07:58:49;;;;;;;0.28;0.13;;;;;;;19.16;100.00;98307.19;7393322;19;20372;-78
2023/08/01 08:01:15;;;;;;;0.30;0.10;;;;;;;19.17;100.00;98303.03;7391708;19;20019;-78
2023/08/01 08:03:41;;;;;;;0.77;0.20;;;;;;;19.09;100.00;98307.97;7394121;19;20050;-78
2023/08/01 08:06:07;;;;;;;0.10;0.10;;;;;;;19.21;100.00;98303.41;7394445;19;20018;-78
2023/08/01 08:08:33;;;;;;;0.30;0.10;;;;;;;19.34;100.00;98300.31;7393221;19;20018;-78
2023/08/01 08:11:01;;;;;;;2.67;0.30;;;;;;;19.58;100.00;98303.19;7392504;19;20022;-78
2023/08/01 08:13:27;;;;;;;0.70;0.70;;;;;;;19.33;100.00;98299.56;7390887;19;20564;-78
2023/08/01 08:15:57;;;;;;;0.10;0.10;;;;;;;19.37;100.00;98304.84;7390318;19;20038;-79
2023/08/01 08:18:24;;;;;;;0.82;0.80;;;;;;;19.22;100.00;98308.47;7393887;19;20361;-78
2023/08/01 08:20:50;;;;;;;1.00;0.20;;;;;;;19.14;100.00;98304.94;7392484;19;20022;-79
2023/08/01 08:23:16;;;;;;;5.05;0.30;;;;;;;19.05;100.00;98308.38;7392615;19;20014;-78
2023/08/01 08:25:46;;;;;;;0.70;0.22;;;;;;;19.01;100.00;98313.66;7391640;19;20082;-79
2023/08/01 08:28:13;;;;;;;0.95;0.22;;;;;;;19.50;100.00;98325.09;7394172;19;20074;-78
2023/08/01 08:30:40;;;;;;;0.40;0.10;;;;;;;19.72;100.00;98317.03;7391160;19;20014;-79
2023/08/01 08:33:06;;;;;;;1.55;0.10;;;;;;;19.71;100.00;98312.72;7391895;19;20098;-79
2023/08/01 08:35:34;;;;;;;0.70;0.10;;;;;;;19.92;100.00;98315.97;7391295;19;20018;-79
2023/08/01 08:38:03;;;;;;;0.10;0.10;;;;;;;19.85;100.00;98319.59;7391557;19;20011;-78
2023/08/01 08:40:33;;;;;;;0.10;0.10;;;;;;;19.93;100.00;98317.44;7389806;19;20473;-78
2023/08/01 08:43:05;;;;;;;0.22;0.05;;;;;;;19.99;100.00;98315.16;7391210;19;20019;-79
2023/08/01 08:45:35;;;;;;;0.00;0.00;;;;;;;20.05;100.00;98318.50;7393188;19;20049;-78
2023/08/01 08:48:09;;;;;;;0.10;0.10;;;;;;;20.28;100.00;98316.97;7392916;19;20026;-79
2023/08/01 08:50:38;;;;;;;7.13;0.28;;;;;;;20.27;100.00;98320.41;7392456;19;20106;-79
2023/08/01 08:53:11;;;;;;;1.27;0.57;;;;;;;20.67;100.00;98323.00;7390883;19;20018;-78
2023/08/01 08:55:39;;;;;;;1.45;0.30;;;;;;;20.33;100.00;98323.72;7390369;19;20018;-79
2023/08/01 08:58:05;;;;;;;1.95;0.43;;;;;;;20.76;100.00;98322.34;7389505;19;20473;-79
2023/08/01 09:00:32;;;;;;;0.10;0.00;;;;;;;20.86;100.00;98329.56;7391548;19;20019;-78
2023/08/01 09:02:58;;;;;;;0.90;0.43;;;;;;;21.85;100.00;98324.13;7390812;19;20438;-79
2023/08/01 09:05:30;;;;;;;1.55;0.20;;;;;;;21.49;100.00;98332.56;7389196;19;20517;-79
2023/08/01 09:07:57;;;;;;;1.20;0.10;;;;;;;21.52;100.00;98330.66;7390889;19;20018;-78
2023/08/01 09:10:23;;;;;;;0.10;0.10;;;;;;;23.16;100.00;98319.13;7388260;19;20022;-79
2023/08/01 09:12:50;;;;;;;0.73;0.15;;;;;;;23.16;100.00;98324.81;7392898;19;20560;-79
2023/08/01 09:15:16;;;;;;;0.10;0.00;;;;;;;22.21;100.00;98319.78;7390507;19;20025;-79
2023/08/01 09:17:51;;;;;;;0.47;0.15;;;;;;;22.94;100.00;98315.41;7390266;19;20015;-79
2023/08/01 09:20:17;;;;;;;27.33;1.08;;;;;;;21.52;100.00;98320.06;7389574;19;20018;-79
2023/08/01 09:22:45;;;;;;;6.72;1.00;;;;;;;21.82;100.00;98324.53;7390537;19;20014;-79
2023/08/01 09:25:12;;;;;;;0.38;0.22;;;;;;;22.73;100.00;98320.19;7392595;19;20507;-78
2023/08/01 09:27:38;;;;;;;0.10;0.00;;;;;;;26.52;100.00;98320.94;7391875;19;20019;-79
2023/08/01 09:30:13;;;;;;;0.38;0.00;;;;;;;23.93;100.00;98314.75;7388886;19;20022;-78
2023/08/01 09:32:39;;;;;;;0.90;0.10;;;;;;;23.80;100.00;98320.19;7389473;19;20356;-79
2023/08/01 09:35:06;;;;;;;0.47;0.13;;;;;;;21.36;100.00;98326.53;7390103;19;20019;-78
2023/08/01 09:37:42;;;;;;;0.95;0.28;;;;;;;21.52;100.00;98325.00;7393423;19;20018;-78
2023/08/01 09:40:12;;;;;;;0.15;0.10;;;;;;;20.93;100.00;98328.00;7397046;19;20081;-78
2023/08/01 09:42:39;;;;;;;0.40;0.20;;;;;;;22.17;100.00;98322.31;7397603;19;20018;-79
2023/08/01 09:45:26;;;;;;;3.53;0.20;;;;;;;22.63;100.00;98319.44;7398172;19;20023;-79
2023/08/01 09:47:52;;;;;;;0.17;0.08;;;;;;;23.04;100.00;98323.94;7395164;19;20022;-79
2023/08/01 09:50:22;;;;;;;3.03;0.32;;;;;;;23.11;100.00;98320.91;7395674;19;20487;-79
2023/08/01 09:52:52;;;;;;;0.10;0.10;;;;;;;22.92;100.00;98334.38;7397520;19;20018;-79
2023/08/01 09:55:32;;;;;;;0.10;0.10;;;;;;;22.98;100.00;98329.91;7398156;19;20011;-79
2023/08/01 09:57:59;;;;;;;0.30;0.30;;;;;;;23.09;100.00;98320.03;7396875;19;20007;-79
2023/08/01 10:00:27;;;;;;;0.20;0.10;;;;;;;23.48;100.00;98318.63;7397410;19;20036;-79
2023/08/01 10:02:57;;;;;;;4.32;0.20;;;;;;;23.56;100.00;98332.69;7396681;19;20491;-79
2023/08/01 10:05:23;;;;;;;0.47;0.38;;;;;;;23.35;100.00;98327.63;7397588;19;20015;-79
2023/08/01 10:07:53;;;;;;;0.13;0.05;;;;;;;22.87;100.00;98327.66;7396146;19;20023;-78
2023/08/01 10:10:20;;;;;;;0.00;0.00;;;;;;;22.41;100.00;98339.09;7396955;19;20050;-78
2023/08/01 10:12:48;;;;;;;6.10;0.25;;;;;;;21.98;100.00;98337.19;7392942;19;20010;-78
2023/08/01 10:15:16;;;;;;;3.35;0.10;;;;;;;21.81;100.00;98335.13;7397778;19;20468;-78
2023/08/01 10:17:42;;;;;;;0.25;0.10;;;;;;;23.45;100.00;98339.00;7395299;19;20783;-78
2023/08/01 10:20:12;;;;;;;0.13;0.00;;;;;;;24.32;100.00;98335.22;7396036;19;20018;-78
2023/08/01 10:22:40;;;;;;;0.22;0.10;;;;;;;25.21;100.00;98333.41;7394311;19;20011;-79
2023/08/01 10:25:09;;;;;;;6.10;0.20;;;;;;;23.87;100.00;98339.16;7392856;19;20375;-78
2023/08/01 10:27:36;;;;;;;0.45;0.30;;;;;;;22.80;100.00;98327.81;7394370;19;20042;-78
2023/08/01 10:30:04;;;;;;;1.30;0.32;;;;;;;25.75;100.00;98332.59;7396567;19;20392;-79
2023/08/01 10:32:38;;;;;;;7.53;0.15;;;;;;;23.37;100.00;98333.47;7396858;19;20010;-79
2023/08/01 10:35:06;;;;;;;0.32;0.00;;;;;;;23.10;100.00;98332.88;7396134;19;20025;-78
2023/08/01 10:37:40;;;;;;;1.65;0.20;;;;;;;22.17;100.00;98337.25;7398653;19;20343;-78
2023/08/01 10:40:07;;;;;;;1.60;0.10;;;;;;;22.02;100.00;98343.16;7396573;19;20356;-78
2023/08/01 10:42:40;;;;;;;0.10;0.10;;;;;;;22.32;100.00;98339.81;7394825;19;20101;-78
2023/08/01 10:45:19;;;;;;;0.10;0.00;;;;;;;22.15;100.00;98348.44;7395400;19;20024;-78
2023/08/01 10:47:45;;;;;;;0.43;0.10;;;;;;;22.47;100.00;98362.25;7395532;19;20034;-79
2023/08/01 10:50:15;;;;;;;1.85;0.00;;;;;;;21.99;100.00;98355.66;7394020;19;20018;-78
2023/08/01 10:52:42;;;;;;;5.05;0.20;;;;;;;22.29;100.00;98357.25;7394977;19;20018;-78
2023/08/01 10:55:08;;;;;;;3.22;0.22;;;;;;;22.46;100.00;98352.22;7395561;19;20025;-79
2023/08/01 10:57:37;;;;;;;0.85;0.30;;;;;;;22.32;100.00;98345.50;7392933;19;20093;-78
2023/08/01 11:00:09;;;;;;;3.78;0.10;;;;;;;22.01;100.00;98355.81;7395131;19;20303;-78
2023/08/01 11:02:36;;;;;;;0.10;0.10;;;;;;;22.56;100.00;98355.84;7393822;19;20031;-78
2023/08/01 11:05:05;;;;;;;0.30;0.25;;;;;;;21.81;100.00;98357.03;7395111;19;20013;-78
2023/08/01 11:07:32;;;;;;;0.10;0.10;;;;;;;21.66;100.00;98351.59;7397252;19;20015;-78
2023/08/01 11:10:08;;;;;;;0.35;0.22;;;;;;;21.70;100.00;98354.78;7395234;19;20370;-79
2023/08/01 11:12:38;;;;;;;0.03;0.00;;;;;;;22.84;100.00;98345.13;7393003;19;20366;-80
2023/08/01 11:15:08;;;;;;;0.22;0.17;;;;;;;22.61;100.00;98346.31;7393068;19;20066;-79
2023/08/01 11:17:35;;;;;;;0.10;0.10;;;;;;;23.90;100.00;98344.41;7393950;19;20022;-80
2023/08/01 11:20:05;;;;;;;0.10;0.00;;;;;;;22.42;100.00;98346.25;7394714;19;20027;-80
2023/08/01 11:22:31;;;;;;;3.03;0.60;;;;;;;22.44;100.00;98351.31;7393509;19;20078;-79